createdAt,value
2023-01-09T00:02:18.333Z,3.00
2023-01-09T00:05:20.558Z,4.38
2023-01-09T00:08:22.261Z,0.50
2023-01-09T00:11:23.868Z,1.00
2023-01-09T00:14:25.580Z,3.22
2023-01-09T00:17:27.571Z,0.98
2023-01-09T00:20:29.183Z,3.45
2023-01-09T00:23:31.018Z,2.85
2023-01-09T00:26:33.036Z,1.15
2023-01-09T00:29:36.869Z,3.65
2023-01-09T00:32:38.534Z,3.25
2023-01-09T00:35:40.086Z,3.85
2023-01-09T00:38:42.052Z,3.58
2023-01-09T00:41:46.545Z,1.65
2023-01-09T00:44:50.993Z,2.88
2023-01-09T00:47:52.743Z,3.70
2023-01-09T00:50:55.412Z,3.33
2023-01-09T00:53:58.291Z,1.85
2023-01-09T00:57:00.055Z,2.75
2023-01-09T01:00:01.751Z,3.17
2023-01-09T01:03:03.564Z,3.28
2023-01-09T01:06:24.025Z,3.78
2023-01-09T01:09:25.593Z,4.45
2023-01-09T01:12:27.188Z,4.38
2023-01-09T01:15:29.604Z,0.85
2023-01-09T01:18:31.416Z,3.67
2023-01-09T01:21:32.960Z,0.13
2023-01-09T01:24:34.852Z,2.13
2023-01-09T01:27:36.423Z,1.02
2023-01-09T01:30:41.264Z,3.00
2023-01-09T01:33:43.040Z,1.20
2023-01-09T01:36:44.742Z,0.38
2023-01-09T01:39:46.475Z,0.55
2023-01-09T01:42:49.488Z,2.15
2023-01-09T01:45:51.201Z,3.80
2023-01-09T01:48:56.033Z,3.63
2023-01-09T01:51:57.625Z,3.60
2023-01-09T01:54:59.283Z,2.97
2023-01-09T01:58:02.862Z,1.98
2023-01-09T02:01:05.718Z,0.40
2023-01-09T02:04:07.916Z,1.48
2023-01-09T02:07:10.341Z,1.50
2023-01-09T02:10:12.026Z,3.67
2023-01-09T02:13:13.907Z,3.63
2023-01-09T02:16:40.707Z,1.95
2023-01-09T02:19:42.303Z,2.70
2023-01-09T02:23:02.768Z,2.00
2023-01-09T02:26:13.338Z,1.52
2023-01-09T02:29:23.911Z,0.45
2023-01-09T02:32:31.272Z,2.22
2023-01-09T02:35:40.524Z,1.13
2023-01-09T02:38:54.163Z,1.38
2023-01-09T02:42:00.411Z,1.05
2023-01-09T02:45:02.018Z,0.20
2023-01-09T02:48:03.671Z,1.75
2023-01-09T02:51:14.556Z,0.82
2023-01-09T02:54:21.896Z,1.73
2023-01-09T02:57:38.811Z,0.93
2023-01-09T03:00:41.635Z,1.55
2023-01-09T03:04:02.372Z,1.80
2023-01-09T03:07:04.007Z,0.00
2023-01-09T03:10:20.313Z,0.47
2023-01-09T03:13:24.013Z,0.60
2023-01-09T03:16:32.684Z,0.20
2023-01-09T03:19:34.988Z,0.90
2023-01-09T03:22:36.829Z,0.15
2023-01-09T03:25:38.461Z,0.93
2023-01-09T03:28:40.051Z,0.43
2023-01-09T03:31:44.367Z,0.88
2023-01-09T03:34:46.023Z,1.10
2023-01-09T03:37:47.905Z,0.82
2023-01-09T03:40:49.584Z,1.08
2023-01-09T03:43:51.150Z,0.25
2023-01-09T03:46:52.789Z,1.98
2023-01-09T03:49:54.468Z,1.40
2023-01-09T03:52:56.073Z,1.58
2023-01-09T03:55:58.948Z,1.48
2023-01-09T03:59:00.536Z,1.38
2023-01-09T04:02:03.803Z,0.15
2023-01-09T04:05:06.086Z,0.70
2023-01-09T04:08:07.864Z,1.13
2023-01-09T04:11:09.806Z,0.90
2023-01-09T04:14:11.371Z,1.27
2023-01-09T04:17:13.022Z,0.32
2023-01-09T04:20:17.326Z,0.95
2023-01-09T04:23:18.961Z,0.85
2023-01-09T04:26:20.676Z,0.93
2023-01-09T04:29:22.284Z,0.75
2023-01-09T04:32:24.037Z,0.20
2023-01-09T04:35:25.710Z,2.15
2023-01-09T04:38:27.572Z,0.60
2023-01-09T04:41:47.787Z,1.13
2023-01-09T04:44:53.655Z,0.70
2023-01-09T04:47:55.250Z,1.00
2023-01-09T04:50:56.932Z,0.63
2023-01-09T04:53:58.643Z,0.63
2023-01-09T04:57:00.306Z,0.50
2023-01-09T05:00:02.438Z,0.60
2023-01-09T05:03:04.212Z,1.17
2023-01-09T05:06:05.960Z,0.28
2023-01-09T05:09:07.826Z,1.23
2023-01-09T05:12:09.524Z,1.98
2023-01-09T05:15:11.378Z,0.30
2023-01-09T05:18:13.029Z,0.63
2023-01-09T05:21:14.857Z,0.35
2023-01-09T05:24:16.443Z,0.47
2023-01-09T05:27:18.079Z,0.55
2023-01-09T05:30:20.266Z,0.20
2023-01-09T05:33:21.966Z,0.38
2023-01-09T05:36:23.557Z,0.98
2023-01-09T05:39:25.231Z,0.20
2023-01-09T05:42:26.813Z,0.77
2023-01-09T05:45:28.638Z,0.95
2023-01-09T05:48:30.340Z,1.02
2023-01-09T05:51:32.136Z,0.85
2023-01-09T05:54:34.026Z,0.63
2023-01-09T05:57:35.724Z,0.52
2023-01-09T06:00:37.442Z,0.63
2023-01-09T06:03:39.072Z,0.25
2023-01-09T06:06:41.047Z,0.57
2023-01-09T06:09:42.820Z,0.10
2023-01-09T06:12:48.105Z,0.52
2023-01-09T06:15:49.899Z,1.15
2023-01-09T06:18:51.827Z,0.73
2023-01-09T06:21:53.829Z,0.80
2023-01-09T06:24:55.517Z,0.77
2023-01-09T06:27:57.319Z,1.08
2023-01-09T06:30:59.102Z,0.75
2023-01-09T06:34:00.947Z,0.55
2023-01-09T06:37:02.784Z,0.63
2023-01-09T06:40:04.691Z,0.93
2023-01-09T06:43:06.344Z,0.13
2023-01-09T06:46:08.163Z,0.20
2023-01-09T06:49:10.039Z,0.60
2023-01-09T06:52:11.781Z,0.80
2023-01-09T06:55:13.609Z,0.13
2023-01-09T06:58:15.238Z,0.95
2023-01-09T07:01:17.108Z,0.50
2023-01-09T07:04:19.034Z,0.60
2023-01-09T07:07:22.376Z,0.85
2023-01-09T07:10:24.133Z,0.43
2023-01-09T07:13:25.814Z,0.10
2023-01-09T07:16:27.514Z,0.20
2023-01-09T07:19:29.120Z,0.10
2023-01-09T07:22:30.867Z,0.43
2023-01-09T07:25:32.884Z,0.50
2023-01-09T07:28:34.614Z,0.43
2023-01-09T07:31:36.350Z,0.40
2023-01-09T07:34:38.092Z,0.57
2023-01-09T07:37:40.157Z,0.68
2023-01-09T07:40:41.832Z,0.80
2023-01-09T07:43:43.475Z,0.32
2023-01-09T07:46:45.138Z,0.80
2023-01-09T07:49:46.792Z,1.08
2023-01-09T07:52:48.466Z,0.73
2023-01-09T07:55:50.063Z,0.63
2023-01-09T07:58:51.729Z,0.45
2023-01-09T08:01:53.418Z,0.47
2023-01-09T08:04:55.144Z,0.65
2023-01-09T08:07:56.851Z,0.90
2023-01-09T08:10:58.448Z,1.15
2023-01-09T08:14:00.220Z,0.80
2023-01-09T08:17:02.778Z,0.77
2023-01-09T08:20:04.576Z,0.08
2023-01-09T08:23:06.219Z,1.45
2023-01-09T08:26:07.820Z,0.90
2023-01-09T08:29:09.757Z,0.98
2023-01-09T08:32:11.773Z,0.68
2023-01-09T08:35:16.378Z,1.00
2023-01-09T08:38:18.143Z,0.90
2023-01-09T08:41:38.700Z,0.55
2023-01-09T08:44:59.202Z,0.45
2023-01-09T08:48:00.844Z,0.70
2023-01-09T08:51:02.712Z,1.13
2023-01-09T08:54:04.293Z,0.95
2023-01-09T08:57:09.043Z,0.70
2023-01-09T09:00:11.043Z,1.17
2023-01-09T09:03:13.788Z,0.80
2023-01-09T09:06:15.418Z,1.38
2023-01-09T09:09:17.138Z,1.20
2023-01-09T09:12:19.011Z,1.90
2023-01-09T09:15:24.133Z,2.10
2023-01-09T09:18:25.886Z,1.40
2023-01-09T09:21:27.690Z,1.65
2023-01-09T09:24:29.409Z,3.10
2023-01-09T09:27:31.689Z,1.58
2023-01-09T09:30:33.498Z,1.45
2023-01-09T09:33:35.107Z,1.27
2023-01-09T09:36:36.768Z,1.33
2023-01-09T09:39:38.517Z,1.67
2023-01-09T09:43:21.963Z,1.70
2023-01-09T09:46:42.194Z,1.30
2023-01-09T09:49:52.531Z,1.60
2023-01-09T09:53:09.279Z,1.50
2023-01-09T09:56:12.452Z,0.90
2023-01-09T09:59:20.088Z,0.80
2023-01-09T10:02:51.789Z,0.90
2023-01-09T10:05:54.410Z,1.02
2023-01-09T10:09:14.585Z,1.35
2023-01-09T10:12:29.697Z,1.38
2023-01-09T10:15:31.303Z,0.70
2023-01-09T10:18:32.968Z,1.08
2023-01-09T10:21:46.629Z,0.77
2023-01-09T10:24:53.966Z,0.73
2023-01-09T10:28:00.182Z,0.80
2023-01-09T10:31:10.283Z,0.00
2023-01-09T10:34:16.063Z,1.05
2023-01-09T10:37:23.999Z,0.80
2023-01-09T10:40:27.887Z,0.82
2023-01-09T10:43:30.073Z,1.60
2023-01-09T10:46:38.426Z,1.23
2023-01-09T10:49:40.607Z,1.13
2023-01-09T10:52:42.649Z,1.08
2023-01-09T10:55:48.223Z,0.85
2023-01-09T10:58:51.530Z,0.93
2023-01-09T11:01:53.684Z,0.90
2023-01-09T11:04:55.441Z,1.13
2023-01-09T11:07:59.660Z,0.88
2023-01-09T11:11:02.227Z,0.98
2023-01-09T11:14:14.836Z,1.23
2023-01-09T11:17:19.844Z,0.50
2023-01-09T11:20:29.178Z,0.73
2023-01-09T11:23:32.352Z,0.85
2023-01-09T11:26:35.231Z,0.52
2023-01-09T11:29:36.845Z,0.70
2023-01-09T11:32:38.564Z,0.70
2023-01-09T11:35:48.999Z,0.50
2023-01-09T11:38:55.188Z,0.80
2023-01-09T11:42:01.133Z,1.30
2023-01-09T11:45:02.885Z,1.40
2023-01-09T11:48:16.190Z,1.27
2023-01-09T11:51:22.410Z,1.00
2023-01-09T11:54:26.106Z,1.20
2023-01-09T11:57:27.913Z,0.90
2023-01-09T12:00:34.899Z,1.02
2023-01-09T12:03:48.565Z,0.68
2023-01-09T12:06:56.789Z,0.50
2023-01-09T12:10:01.472Z,0.82
2023-01-09T12:13:38.791Z,1.13
2023-01-09T12:16:59.374Z,1.40
2023-01-09T12:20:01.153Z,0.80
2023-01-09T12:23:25.542Z,1.23
2023-01-09T12:26:30.227Z,0.80
2023-01-09T12:29:47.142Z,0.40
2023-01-09T12:32:51.891Z,0.63
2023-01-09T12:36:20.550Z,0.20
2023-01-09T12:39:31.319Z,0.10
2023-01-09T12:42:41.248Z,0.25
2023-01-09T12:46:02.998Z,0.20
2023-01-09T12:49:23.312Z,0.00
2023-01-09T12:52:29.031Z,0.00
2023-01-09T12:55:33.561Z,0.00
2023-01-09T12:58:38.308Z,0.05
2023-01-09T13:01:43.995Z,0.25
2023-01-09T13:04:50.510Z,0.00
2023-01-09T13:07:59.202Z,0.10
2023-01-09T13:11:21.050Z,0.20
2023-01-09T13:14:31.053Z,0.00
2023-01-09T13:17:35.752Z,0.08
2023-01-09T13:20:49.329Z,0.10
2023-01-09T13:23:53.843Z,0.00
2023-01-09T13:26:57.742Z,0.10
2023-01-09T13:30:08.473Z,0.20
2023-01-09T13:33:29.949Z,0.10
2023-01-09T13:36:33.934Z,0.05
2023-01-09T13:39:35.710Z,0.00
2023-01-09T13:42:46.504Z,0.00
2023-01-09T13:45:51.150Z,0.00
2023-01-09T13:48:53.257Z,0.10
2023-01-09T13:51:58.148Z,0.10
2023-01-09T13:55:01.095Z,0.00
2023-01-09T13:58:05.982Z,0.10
2023-01-09T14:01:34.548Z,0.10
2023-01-09T14:04:43.474Z,0.00
2023-01-09T14:07:47.333Z,0.10
2023-01-09T14:10:49.208Z,0.03
2023-01-09T14:13:59.213Z,0.10
2023-01-09T14:17:03.482Z,0.15
2023-01-09T14:20:07.155Z,0.15
2023-01-09T14:23:35.283Z,0.10
2023-01-09T14:26:45.288Z,0.15
2023-01-09T14:29:47.617Z,0.10
2023-01-09T14:33:01.631Z,0.28
2023-01-09T14:36:09.427Z,0.17
2023-01-09T14:39:13.019Z,0.25
2023-01-09T14:42:18.205Z,0.40
2023-01-09T14:45:22.406Z,0.15
2023-01-09T14:48:24.944Z,0.35
2023-01-09T14:51:29.251Z,0.40
2023-01-09T14:54:33.609Z,0.40
2023-01-09T14:57:35.460Z,0.00
2023-01-09T15:00:37.136Z,0.20
2023-01-09T15:03:59.199Z,0.10
2023-01-09T15:07:01.865Z,0.10
2023-01-09T15:10:04.167Z,0.20
2023-01-09T15:13:08.432Z,0.20
2023-01-09T15:16:17.661Z,0.00
2023-01-09T15:19:20.296Z,0.05
2023-01-09T15:22:33.580Z,0.00
2023-01-09T15:25:40.600Z,0.10
2023-01-09T15:28:43.890Z,0.05
2023-01-09T15:31:47.095Z,0.28
2023-01-09T15:34:49.055Z,0.08
2023-01-09T15:37:52.298Z,0.00
2023-01-09T15:41:01.409Z,0.20
2023-01-09T15:44:04.518Z,0.10
2023-01-09T15:47:07.890Z,0.10
2023-01-09T15:50:13.356Z,0.00
2023-01-09T15:53:16.508Z,0.30
2023-01-09T15:56:23.976Z,0.47
2023-01-09T15:59:27.377Z,0.20
2023-01-09T16:02:47.803Z,0.17
2023-01-09T16:05:51.378Z,0.03
2023-01-09T16:08:56.138Z,0.00
2023-01-09T16:12:00.460Z,0.03
2023-01-09T16:15:02.115Z,0.73
2023-01-09T16:18:06.765Z,0.20
2023-01-09T16:21:23.450Z,0.13
2023-01-09T16:24:26.430Z,0.40
2023-01-09T16:27:33.357Z,0.10
2023-01-09T16:30:35.020Z,0.15
2023-01-09T16:33:44.329Z,0.38
2023-01-09T16:36:46.001Z,0.57
2023-01-09T16:40:06.106Z,0.38
2023-01-09T16:43:11.345Z,0.10
2023-01-09T16:46:14.053Z,0.25
2023-01-09T16:49:20.099Z,0.25
2023-01-09T16:52:21.765Z,0.10
2023-01-09T16:55:23.563Z,0.45
2023-01-09T16:58:30.270Z,0.30
2023-01-09T17:04:33.424Z,0.20
2023-01-09T17:07:35.360Z,0.15
2023-01-09T17:10:36.940Z,0.08
2023-01-09T17:13:38.571Z,0.00
2023-01-09T17:16:43.332Z,0.45
2023-01-09T17:19:46.795Z,0.00
2023-01-09T17:22:48.431Z,0.40
2023-01-09T17:26:09.823Z,0.22
2023-01-09T17:29:11.652Z,0.25
2023-01-09T17:32:14.811Z,0.10
2023-01-09T17:35:16.915Z,0.15
2023-01-09T17:38:19.005Z,0.10
2023-01-09T17:41:22.664Z,0.13
2023-01-09T17:44:24.394Z,0.10
2023-01-09T17:47:25.975Z,0.08
2023-01-09T17:50:31.237Z,0.10
2023-01-09T17:53:33.024Z,0.28
2023-01-09T17:56:37.453Z,0.60
2023-01-09T17:59:39.128Z,0.43
2023-01-09T18:02:40.962Z,0.00
2023-01-09T18:05:42.624Z,0.00
2023-01-09T18:08:44.331Z,0.32
2023-01-09T18:11:46.013Z,0.20
2023-01-09T18:14:48.016Z,0.38
2023-01-09T18:17:49.873Z,0.10
2023-01-09T18:20:52.622Z,0.45
2023-01-09T18:23:54.422Z,0.20
2023-01-09T18:26:56.004Z,0.10
2023-01-09T18:29:57.621Z,0.32
2023-01-09T18:32:59.344Z,0.22
2023-01-09T18:36:08.174Z,0.63
2023-01-09T18:39:10.167Z,0.10
2023-01-09T18:42:11.835Z,0.35
2023-01-09T18:45:13.429Z,0.32
2023-01-09T18:48:15.045Z,0.43
2023-01-09T18:51:16.651Z,0.60
2023-01-09T18:54:18.406Z,0.30
2023-01-09T18:57:19.959Z,0.00
2023-01-09T19:00:21.644Z,0.30
2023-01-09T19:03:23.283Z,0.08
2023-01-09T19:06:25.559Z,0.05
2023-01-09T19:09:27.316Z,0.10
2023-01-09T19:12:28.926Z,0.20
2023-01-09T19:15:30.751Z,0.28
2023-01-09T19:18:33.661Z,0.22
2023-01-09T19:21:35.544Z,0.47
2023-01-09T19:24:37.736Z,0.40
2023-01-09T19:27:39.378Z,0.25
2023-01-09T19:30:41.044Z,0.40
2023-01-09T19:33:42.993Z,0.30
2023-01-09T19:36:44.802Z,0.03
2023-01-09T19:39:47.028Z,0.00
2023-01-09T19:42:48.765Z,0.15
2023-01-09T19:45:50.418Z,0.20
2023-01-09T19:48:52.431Z,0.30
2023-01-09T19:51:55.846Z,0.30
2023-01-09T19:54:57.538Z,0.45
2023-01-09T19:57:59.141Z,0.20
2023-01-09T20:01:08.007Z,0.25
2023-01-09T20:04:13.877Z,0.22
2023-01-09T20:07:15.469Z,0.00
2023-01-09T20:10:17.377Z,0.43
2023-01-09T20:13:19.015Z,0.00
2023-01-09T20:16:21.617Z,0.50
2023-01-09T20:19:23.321Z,0.10
2023-01-09T20:22:26.347Z,0.38
2023-01-09T20:25:27.964Z,0.00
2023-01-09T20:28:29.587Z,0.15
2023-01-09T20:31:32.535Z,0.52
2023-01-09T20:34:34.257Z,0.55
2023-01-09T20:37:35.885Z,1.33
2023-01-09T20:40:37.756Z,0.17
2023-01-09T20:43:40.288Z,0.98
2023-01-09T20:46:42.929Z,0.13
2023-01-09T20:49:44.506Z,0.35
2023-01-09T20:52:46.302Z,0.10
2023-01-09T20:55:47.980Z,0.10
2023-01-09T20:58:49.888Z,0.00
2023-01-09T21:01:51.629Z,0.05
2023-01-09T21:04:53.518Z,0.43
2023-01-09T21:07:55.165Z,0.57
2023-01-09T21:10:57.495Z,0.15
2023-01-09T21:13:59.988Z,0.40
2023-01-09T21:17:01.618Z,0.30
2023-01-09T21:20:04.914Z,0.10
2023-01-09T21:23:09.712Z,0.40
2023-01-09T21:26:11.832Z,0.20
2023-01-09T21:29:13.580Z,0.40
2023-01-09T21:32:15.192Z,0.20
2023-01-09T21:35:17.385Z,0.10
2023-01-09T21:38:19.056Z,0.10
2023-01-09T21:41:39.816Z,0.00
2023-01-09T21:44:59.892Z,0.08
2023-01-09T21:48:07.732Z,0.15
2023-01-09T21:51:09.428Z,0.20
2023-01-09T21:54:11.226Z,0.20
2023-01-09T21:57:13.202Z,0.00
2023-01-09T22:00:15.024Z,0.00
2023-01-09T22:03:18.564Z,0.00
2023-01-09T22:06:20.272Z,0.20
2023-01-09T22:09:21.969Z,0.00
2023-01-09T22:12:23.615Z,0.20
2023-01-09T22:15:25.204Z,0.08
2023-01-09T22:18:26.802Z,0.00
2023-01-09T22:21:28.466Z,0.00
2023-01-09T22:24:30.047Z,0.10
2023-01-09T22:27:31.673Z,0.10
2023-01-09T22:30:33.342Z,0.10
2023-01-09T22:33:35.160Z,0.30
2023-01-09T22:36:38.055Z,0.10
2023-01-09T22:39:39.662Z,0.00
2023-01-09T22:42:41.255Z,0.10
2023-01-09T22:45:43.175Z,0.32
2023-01-09T22:48:44.887Z,0.30
2023-01-09T22:51:46.727Z,0.10
2023-01-09T22:54:48.383Z,0.30
2023-01-09T22:57:50.144Z,0.25
2023-01-09T23:00:51.890Z,0.10
2023-01-09T23:03:53.472Z,0.43
2023-01-09T23:06:55.297Z,0.30
2023-01-09T23:10:00.425Z,0.17
2023-01-09T23:13:02.111Z,0.20
2023-01-09T23:16:04.321Z,0.00
2023-01-09T23:19:09.872Z,0.00
2023-01-09T23:22:11.605Z,0.20
2023-01-09T23:25:14.733Z,0.55
2023-01-09T23:28:16.562Z,0.20
2023-01-09T23:31:18.606Z,0.20
2023-01-09T23:34:23.674Z,0.20
2023-01-09T23:37:25.238Z,0.03
2023-01-09T23:40:26.902Z,0.35
2023-01-09T23:43:28.491Z,0.28
2023-01-09T23:46:30.060Z,0.20
2023-01-09T23:49:31.754Z,0.20
2023-01-09T23:52:33.405Z,0.80
2023-01-09T23:55:35.173Z,0.03
2023-01-09T23:58:36.882Z,0.35
